Time;durP1;ratioP1;P1;durP2;ratioP2;P2;SDS_P1;SDS_P2;PMS_P1;PMS_P2;Temp;Humidity;BMP_temperature;BMP_pressure;BME280_temperature;BME280_humidity;BME280_pressure;Samples;Min_cycle;Max_cycle;Signal;HPM_P1;HPM_P2
2022/09/06 00:01:48;;;;;;;12.60;6.00;;;;;;;;;;108327;1300;23169;-28
2022/09/06 00:04:13;;;;;;;14.60;7.60;;;;;;;;;;108413;1300;22535;-24
2022/09/06 00:06:39;;;;;;;7.70;6.50;;;;;;;;;;108368;1286;23295;-28
2022/09/06 00:09:04;;;;;;;20.00;16.30;;;;;;;;;;108365;1300;22168;-25
2022/09/06 00:11:30;;;;;;;13.70;8.40;;;;;;;;;;108375;1300;23239;-28
2022/09/06 00:13:55;;;;;;;23.40;16.10;;;;;;;;;;108364;1300;22419;-28
2022/09/06 00:16:22;;;;;;;6.20;4.40;;;;;;;;;;108394;1300;23161;-25
2022/09/06 00:18:48;;;;;;;126.50;63.00;;;;;;;;;;108372;1300;22397;-28
2022/09/06 00:21:15;;;;;;;40.70;20.80;;;;;;;;;;108375;1308;22879;-24
2022/09/06 00:23:41;;;;;;;45.10;23.40;;;;;;;;;;108381;1301;22534;-28
2022/09/06 00:26:06;;;;;;;7.30;4.90;;;;;;;;;;108418;1300;22448;-24
2022/09/06 00:28:32;;;;;;;6.40;5.10;;;;;;;;;;108359;1300;23314;-24
2022/09/06 00:30:58;;;;;;;55.80;31.70;;;;;;;;;;108347;1300;22386;-24
2022/09/06 00:33:23;;;;;;;301.70;141.80;;;;;;;;;;108405;1300;23199;-25
2022/09/06 00:35:50;;;;;;;452.40;197.30;;;;;;;;;;108359;1300;22419;-28
2022/09/06 00:38:15;;;;;;;643.40;275.10;;;;;;;;;;108447;1300;22107;-24
2022/09/06 00:40:41;;;;;;;659.80;317.80;;;;;;;;;;108379;1300;22420;-28
2022/09/06 00:43:06;;;;;;;440.30;208.40;;;;;;;;;;108353;1308;23130;-28
2022/09/06 00:45:32;;;;;;;146.60;75.70;;;;;;;;;;108372;1300;23381;-27
2022/09/06 00:47:58;;;;;;;36.20;18.00;;;;;;;;;;108366;1308;22276;-25
2022/09/06 00:50:24;;;;;;;21.90;18.10;;;;;;;;;;108337;1302;22364;-25
2022/09/06 00:52:50;;;;;;;14.60;12.40;;;;;;;;;;108359;1300;23135;-24
2022/09/06 00:55:15;;;;;;;11.40;10.00;;;;;;;;;;108377;1300;22183;-28
2022/09/06 00:57:41;;;;;;;3.70;2.20;;;;;;;;;;108372;1300;23060;-24
2022/09/06 01:00:08;;;;;;;3.90;3.40;;;;;;;;;;108370;1302;22705;-28
2022/09/06 01:02:34;;;;;;;6.10;3.00;;;;;;;;;;108380;1300;22494;-24
2022/09/06 01:05:00;;;;;;;2.90;1.30;;;;;;;;;;108371;1301;22430;-25
2022/09/06 01:07:28;;;;;;;15.10;1.30;;;;;;;;;;108354;1301;22648;-28
2022/09/06 01:09:57;;;;;;;1.50;1.00;;;;;;;;;;108270;1302;23215;-28
2022/09/06 01:12:27;;;;;;;2.20;1.00;;;;;;;;;;108353;1302;22654;-27
2022/09/06 01:14:56;;;;;;;2.00;0.80;;;;;;;;;;108350;1308;22503;-27
2022/09/06 01:17:26;;;;;;;1.40;0.60;;;;;;;;;;108385;1302;23247;-27
2022/09/06 01:19:55;;;;;;;2.60;1.00;;;;;;;;;;108374;1300;22979;-24
2022/09/06 01:22:24;;;;;;;1.90;0.90;;;;;;;;;;108385;1301;22443;-28
2022/09/06 01:24:58;;;;;;;4.90;0.90;;;;;;;;;;108084;1301;23426;-24
2022/09/06 01:27:43;;;;;;;2.80;1.00;;;;;;;;;;108376;1301;22767;-24
2022/09/06 01:30:09;;;;;;;3.50;1.20;;;;;;;;;;108370;1300;22417;-24
2022/09/06 01:32:39;;;;;;;4.40;1.10;;;;;;;;;;108353;1300;22359;-28
2022/09/06 01:35:06;;;;;;;2.70;1.00;;;;;;;;;;108385;1302;22213;-24
2022/09/06 01:37:32;;;;;;;1.50;0.90;;;;;;;;;;108362;1308;23375;-25
2022/09/06 01:39:57;;;;;;;6.70;1.30;;;;;;;;;;108395;1308;22823;-28
2022/09/06 01:42:24;;;;;;;1.70;1.40;;;;;;;;;;108367;1300;22401;-24
2022/09/06 01:44:51;;;;;;;1.50;0.70;;;;;;;;;;108385;1300;22992;-27
2022/09/06 01:47:21;;;;;;;2.60;1.00;;;;;;;;;;108386;1300;23059;-28
2022/09/06 01:49:47;;;;;;;2.00;0.70;;;;;;;;;;108368;1300;22554;-28
2022/09/06 01:52:15;;;;;;;3.00;0.90;;;;;;;;;;108098;1300;23193;-24
2022/09/06 01:54:45;;;;;;;2.20;0.90;;;;;;;;;;107937;1302;24257;-27
2022/09/06 01:57:17;;;;;;;3.90;1.10;;;;;;;;;;108395;1302;22435;-30
2022/09/06 01:59:46;;;;;;;3.40;1.00;;;;;;;;;;108438;1300;22451;-30
2022/09/06 02:02:15;;;;;;;2.10;1.00;;;;;;;;;;108108;1301;22497;-30
2022/09/06 02:04:43;;;;;;;4.90;1.30;;;;;;;;;;108433;1300;22494;-27
2022/09/06 02:07:11;;;;;;;2.30;1.10;;;;;;;;;;108403;1300;22450;-30
2022/09/06 02:09:39;;;;;;;1.60;0.90;;;;;;;;;;108204;1308;22475;-26
2022/09/06 02:12:05;;;;;;;1.10;0.60;;;;;;;;;;108424;1308;23035;-27
2022/09/06 02:14:34;;;;;;;3.10;0.90;;;;;;;;;;108452;1300;23203;-28
2022/09/06 02:17:00;;;;;;;3.30;1.00;;;;;;;;;;108450;1300;22759;-30
2022/09/06 02:19:28;;;;;;;1.40;0.80;;;;;;;;;;108279;1302;23060;-27
2022/09/06 02:21:54;;;;;;;1.90;0.80;;;;;;;;;;108432;1308;22461;-30
2022/09/06 02:24:21;;;;;;;2.50;1.30;;;;;;;;;;107615;1300;23330;-27
2022/09/06 02:26:47;;;;;;;7.40;1.40;;;;;;;;;;108448;1300;22697;-25
2022/09/06 02:29:13;;;;;;;1.60;0.90;;;;;;;;;;108335;1300;22540;-26
2022/09/06 02:31:41;;;;;;;2.70;0.80;;;;;;;;;;108202;1292;23311;-28
2022/09/06 02:34:07;;;;;;;3.90;1.90;;;;;;;;;;108410;1308;22528;-28
2022/09/06 02:36:34;;;;;;;4.20;1.40;;;;;;;;;;108446;1300;23145;-28
2022/09/06 02:39:00;;;;;;;2.90;1.10;;;;;;;;;;108393;1308;22178;-28
2022/09/06 02:41:26;;;;;;;1.90;1.10;;;;;;;;;;108398;1300;22600;-25
2022/09/06 02:43:51;;;;;;;3.10;1.40;;;;;;;;;;108400;1300;23273;-25
2022/09/06 02:46:17;;;;;;;2.60;1.60;;;;;;;;;;108314;1308;22190;-28
2022/09/06 02:48:42;;;;;;;3.90;1.30;;;;;;;;;;108299;1308;22629;-28
2022/09/06 02:51:08;;;;;;;3.40;2.00;;;;;;;;;;108363;1300;23154;-28
2022/09/06 02:53:33;;;;;;;6.90;1.10;;;;;;;;;;108416;1300;23179;-25
2022/09/06 02:55:59;;;;;;;5.90;1.70;;;;;;;;;;108360;1308;23238;-24
2022/09/06 02:58:25;;;;;;;2.20;1.40;;;;;;;;;;107765;1308;22586;-28
2022/09/06 03:00:51;;;;;;;2.80;1.20;;;;;;;;;;108362;1300;22523;-25
2022/09/06 03:03:16;;;;;;;2.60;1.00;;;;;;;;;;108362;1300;23202;-28
2022/09/06 03:05:45;;;;;;;3.00;1.00;;;;;;;;;;108385;1300;22396;-26
2022/09/06 03:08:11;;;;;;;4.50;1.70;;;;;;;;;;108327;1300;22107;-30
2022/09/06 03:10:36;;;;;;;3.00;1.10;;;;;;;;;;108356;1300;23563;-25
2022/09/06 03:13:02;;;;;;;3.10;1.20;;;;;;;;;;108381;1300;22909;-28
2022/09/06 03:15:28;;;;;;;4.90;1.00;;;;;;;;;;108358;1301;23231;-28
2022/09/06 03:17:57;;;;;;;2.70;1.10;;;;;;;;;;108325;1302;23292;-28
2022/09/06 03:20:24;;;;;;;2.80;1.10;;;;;;;;;;108346;1308;22613;-25
2022/09/06 03:22:49;;;;;;;19.80;3.60;;;;;;;;;;108352;1300;22324;-28
2022/09/06 03:25:15;;;;;;;26.10;15.90;;;;;;;;;;108263;1300;23326;-28
2022/09/06 03:27:40;;;;;;;3.40;2.80;;;;;;;;;;108312;1302;23100;-25
2022/09/06 03:30:06;;;;;;;6.00;3.30;;;;;;;;;;108311;1301;22547;-28
2022/09/06 03:32:32;;;;;;;2.50;2.10;;;;;;;;;;108226;1302;23063;-25
2022/09/06 03:34:58;;;;;;;5.00;2.80;;;;;;;;;;108358;1302;22598;-28
2022/09/06 03:37:24;;;;;;;8.90;3.90;;;;;;;;;;108388;1300;22885;-29
2022/09/06 03:39:49;;;;;;;2.10;1.20;;;;;;;;;;108352;1295;22456;-25
2022/09/06 03:42:14;;;;;;;2.60;0.90;;;;;;;;;;108362;1301;22423;-25
2022/09/06 03:44:40;;;;;;;2.80;1.20;;;;;;;;;;108380;1300;23298;-25
2022/09/06 03:47:06;;;;;;;1.40;0.70;;;;;;;;;;108329;1300;23208;-25
2022/09/06 03:49:31;;;;;;;4.80;1.00;;;;;;;;;;108366;1300;22455;-25
2022/09/06 03:51:56;;;;;;;1.40;0.90;;;;;;;;;;108387;1300;23206;-25
2022/09/06 03:54:23;;;;;;;2.20;1.20;;;;;;;;;;108291;1300;22533;-25
2022/09/06 03:56:48;;;;;;;3.00;1.50;;;;;;;;;;107902;1302;23167;-25
2022/09/06 03:59:14;;;;;;;4.20;1.50;;;;;;;;;;108278;1302;23313;-28
2022/09/06 04:01:39;;;;;;;2.50;1.00;;;;;;;;;;108327;1292;23363;-28
2022/09/06 04:04:05;;;;;;;2.20;0.70;;;;;;;;;;108374;1286;23259;-25
2022/09/06 04:06:30;;;;;;;1.80;1.00;;;;;;;;;;108393;1300;22147;-28
2022/09/06 04:08:56;;;;;;;2.90;1.00;;;;;;;;;;108367;1300;23184;-28
2022/09/06 04:11:21;;;;;;;2.20;1.10;;;;;;;;;;108374;1300;22439;-25
2022/09/06 04:13:47;;;;;;;2.60;1.10;;;;;;;;;;108312;1296;22568;-25
2022/09/06 04:16:13;;;;;;;3.60;1.50;;;;;;;;;;108333;1301;22956;-25
2022/09/06 04:18:39;;;;;;;10.90;1.50;;;;;;;;;;108368;1308;22690;-25
2022/09/06 04:21:05;;;;;;;2.20;1.00;;;;;;;;;;108367;1302;22437;-25
2022/09/06 04:23:31;;;;;;;3.70;1.50;;;;;;;;;;108368;1301;22508;-28
2022/09/06 04:25:57;;;;;;;1.90;1.20;;;;;;;;;;108354;1300;23051;-28
2022/09/06 04:28:23;;;;;;;3.40;1.30;;;;;;;;;;108389;1300;23137;-28
2022/09/06 04:30:50;;;;;;;5.00;1.80;;;;;;;;;;108372;1301;22578;-25
2022/09/06 04:33:16;;;;;;;17.90;2.20;;;;;;;;;;108348;1302;22692;-25
2022/09/06 04:35:41;;;;;;;4.30;1.90;;;;;;;;;;108339;1301;23161;-28
2022/09/06 04:38:07;;;;;;;1.80;1.10;;;;;;;;;;107932;1302;520729;-28
2022/09/06 04:40:33;;;;;;;1.90;1.00;;;;;;;;;;108362;1300;23238;-25
2022/09/06 04:42:59;;;;;;;2.80;1.40;;;;;;;;;;108315;1308;22540;-25
2022/09/06 04:45:24;;;;;;;10.40;1.20;;;;;;;;;;108389;1300;22921;-25
2022/09/06 04:47:50;;;;;;;2.40;0.90;;;;;;;;;;108367;1301;22462;-25
2022/09/06 04:50:16;;;;;;;2.00;1.00;;;;;;;;;;108362;1308;22880;-28
2022/09/06 04:52:41;;;;;;;1.50;0.90;;;;;;;;;;108347;1300;22554;-28
2022/09/06 04:55:07;;;;;;;6.20;1.20;;;;;;;;;;108374;1301;23194;-25
2022/09/06 04:57:33;;;;;;;2.90;1.60;;;;;;;;;;108302;1308;23292;-29
2022/09/06 04:59:58;;;;;;;4.30;1.90;;;;;;;;;;108261;1302;22530;-29
2022/09/06 05:02:24;;;;;;;3.10;1.40;;;;;;;;;;108296;1300;22372;-25
2022/09/06 05:04:51;;;;;;;2.70;1.40;;;;;;;;;;108212;1302;22524;-25
2022/09/06 05:07:16;;;;;;;6.40;1.50;;;;;;;;;;108320;1308;23043;-28
2022/09/06 05:09:42;;;;;;;2.60;1.20;;;;;;;;;;108234;1302;23325;-25
2022/09/06 05:12:07;;;;;;;4.90;1.50;;;;;;;;;;108287;1302;22549;-25
2022/09/06 05:14:34;;;;;;;2.10;0.80;;;;;;;;;;108167;1301;23352;-25
2022/09/06 05:16:59;;;;;;;3.70;1.20;;;;;;;;;;107796;1308;23213;-28
2022/09/06 05:19:25;;;;;;;2.80;1.30;;;;;;;;;;107702;1301;22531;-25
2022/09/06 05:21:51;;;;;;;2.20;1.00;;;;;;;;;;107492;1308;24220;-28
2022/09/06 05:24:17;;;;;;;3.50;1.70;;;;;;;;;;108284;1301;23189;-28
2022/09/06 05:26:42;;;;;;;2.40;1.60;;;;;;;;;;108341;1308;22399;-28
2022/09/06 05:29:08;;;;;;;2.10;1.30;;;;;;;;;;108339;1301;23227;-24
2022/09/06 05:31:34;;;;;;;3.90;1.10;;;;;;;;;;108325;1301;23795;-27
2022/09/06 05:33:59;;;;;;;2.60;1.00;;;;;;;;;;108358;1301;22547;-24
2022/09/06 05:36:25;;;;;;;2.80;1.40;;;;;;;;;;108336;1300;22186;-27
2022/09/06 05:38:51;;;;;;;3.60;2.00;;;;;;;;;;108416;1300;23337;-24
2022/09/06 05:41:16;;;;;;;2.70;1.40;;;;;;;;;;108046;1300;22750;-27
2022/09/06 05:43:42;;;;;;;3.60;1.80;;;;;;;;;;108417;1300;22450;-28
2022/09/06 05:46:08;;;;;;;3.10;2.10;;;;;;;;;;108378;1300;22537;-27
2022/09/06 05:48:33;;;;;;;4.40;2.00;;;;;;;;;;108326;1300;23384;-24
2022/09/06 05:51:00;;;;;;;2.90;1.60;;;;;;;;;;108112;1308;23116;-24
2022/09/06 05:53:26;;;;;;;8.80;2.40;;;;;;;;;;108204;1302;23208;-27
2022/09/06 05:55:51;;;;;;;7.80;2.10;;;;;;;;;;108216;1302;23268;-27
2022/09/06 05:58:16;;;;;;;4.20;1.90;;;;;;;;;;108375;1300;23276;-27
2022/09/06 06:00:42;;;;;;;4.50;2.10;;;;;;;;;;108376;1308;22406;-23
2022/09/06 06:03:08;;;;;;;3.50;1.90;;;;;;;;;;108382;1300;23639;-27
2022/09/06 06:05:34;;;;;;;2.60;1.50;;;;;;;;;;108365;1301;23135;-27
2022/09/06 06:07:59;;;;;;;2.50;1.50;;;;;;;;;;108388;1300;23722;-23
2022/09/06 06:10:25;;;;;;;3.60;1.40;;;;;;;;;;108373;1300;23074;-24
2022/09/06 06:12:50;;;;;;;4.50;1.50;;;;;;;;;;108356;1300;23365;-24
2022/09/06 06:15:15;;;;;;;5.50;2.50;;;;;;;;;;108362;1300;22337;-27
2022/09/06 06:17:41;;;;;;;2.70;1.90;;;;;;;;;;108431;1300;23219;-24
2022/09/06 06:20:07;;;;;;;18.60;2.60;;;;;;;;;;108384;1301;23207;-24
2022/09/06 06:22:34;;;;;;;15.70;2.80;;;;;;;;;;107846;1300;22538;-25
2022/09/06 06:24:59;;;;;;;9.20;2.30;;;;;;;;;;108396;1300;23155;-26
2022/09/06 06:27:25;;;;;;;2.70;1.60;;;;;;;;;;108174;1300;23447;-24
2022/09/06 06:29:51;;;;;;;5.00;1.30;;;;;;;;;;108290;1300;23744;-25
2022/09/06 06:32:16;;;;;;;3.80;1.30;;;;;;;;;;108249;1302;22527;-28
2022/09/06 06:34:42;;;;;;;3.50;1.50;;;;;;;;;;108402;1300;23479;-29
2022/09/06 06:37:07;;;;;;;11.40;1.50;;;;;;;;;;108292;1301;22593;-29
2022/09/06 06:39:33;;;;;;;6.30;1.30;;;;;;;;;;108185;1302;22710;-25
2022/09/06 06:41:59;;;;;;;3.40;1.00;;;;;;;;;;108198;1308;23160;-29
2022/09/06 06:44:26;;;;;;;2.80;1.20;;;;;;;;;;108206;1301;23119;-25
2022/09/06 06:46:52;;;;;;;6.00;1.30;;;;;;;;;;108210;1308;22547;-25
2022/09/06 06:49:18;;;;;;;3.80;1.90;;;;;;;;;;108082;1301;22523;-25
2022/09/06 06:51:43;;;;;;;2.20;1.30;;;;;;;;;;108136;1302;23399;-29
2022/09/06 06:54:08;;;;;;;2.80;0.90;;;;;;;;;;108221;1308;23165;-25
2022/09/06 06:56:35;;;;;;;3.00;1.20;;;;;;;;;;108252;1300;22523;-29
2022/09/06 06:59:01;;;;;;;2.70;1.40;;;;;;;;;;108284;1300;25242;-29
2022/09/06 07:01:27;;;;;;;1.10;0.70;;;;;;;;;;108224;1302;23241;-28
2022/09/06 07:03:53;;;;;;;3.50;1.10;;;;;;;;;;108173;1301;23330;-29
2022/09/06 07:06:19;;;;;;;3.60;1.40;;;;;;;;;;107804;1289;25222;-24
2022/09/06 07:08:44;;;;;;;3.90;0.80;;;;;;;;;;108161;1302;23156;-25
2022/09/06 07:11:10;;;;;;;3.00;1.10;;;;;;;;;;108390;1301;25273;-24
2022/09/06 07:13:36;;;;;;;1.60;0.80;;;;;;;;;;108362;1300;23097;-24
2022/09/06 07:16:05;;;;;;;1.30;0.70;;;;;;;;;;108318;1300;22574;-24
2022/09/06 07:18:31;;;;;;;3.60;1.20;;;;;;;;;;108350;1300;23287;-28
2022/09/06 07:20:57;;;;;;;9.70;1.10;;;;;;;;;;108367;1301;23382;-28
2022/09/06 07:23:24;;;;;;;1.80;0.80;;;;;;;;;;108338;1308;23313;-24
2022/09/06 07:25:50;;;;;;;1.80;1.00;;;;;;;;;;108372;1302;22455;-25
2022/09/06 07:28:15;;;;;;;2.30;0.60;;;;;;;;;;108363;1300;22644;-28
2022/09/06 07:30:41;;;;;;;3.40;0.90;;;;;;;;;;108289;1301;22414;-25
2022/09/06 07:33:06;;;;;;;1.60;0.90;;;;;;;;;;108200;1308;23254;-25
2022/09/06 07:35:32;;;;;;;1.80;0.80;;;;;;;;;;108111;1308;22449;-28
2022/09/06 07:37:58;;;;;;;2.00;1.00;;;;;;;;;;108362;1302;23482;-25
2022/09/06 07:40:25;;;;;;;2.30;1.00;;;;;;;;;;108339;1301;23207;-28
2022/09/06 07:42:51;;;;;;;6.30;0.80;;;;;;;;;;108207;1302;22565;-29
2022/09/06 07:45:17;;;;;;;2.40;0.70;;;;;;;;;;108290;1308;22380;-25
2022/09/06 07:47:43;;;;;;;5.10;0.80;;;;;;;;;;107863;1302;23205;-25
2022/09/06 07:50:09;;;;;;;5.50;0.90;;;;;;;;;;108202;1301;25373;-24
2022/09/06 07:52:35;;;;;;;11.50;0.80;;;;;;;;;;108342;1302;22680;-24
2022/09/06 07:55:00;;;;;;;3.80;1.00;;;;;;;;;;108247;1302;23899;-24
2022/09/06 07:57:26;;;;;;;7.10;0.90;;;;;;;;;;108181;1302;25209;-24
2022/09/06 07:59:51;;;;;;;3.20;0.90;;;;;;;;;;107907;1308;23565;-24
2022/09/06 08:02:17;;;;;;;3.40;0.70;;;;;;;;;;107583;1301;22543;-24
2022/09/06 08:04:43;;;;;;;4.30;0.80;;;;;;;;;;108359;1302;22944;-24
2022/09/06 08:07:08;;;;;;;10.10;0.60;;;;;;;;;;108261;1308;22518;-28
2022/09/06 08:09:34;;;;;;;2.40;0.70;;;;;;;;;;108361;1308;23396;-28
2022/09/06 08:12:05;;;;;;;4.50;0.60;;;;;;;;;;108136;1302;23215;-28
2022/09/06 08:14:32;;;;;;;3.20;0.70;;;;;;;;;;107867;1290;23300;-28
2022/09/06 08:16:58;;;;;;;2.20;0.80;;;;;;;;;;108369;1301;23366;-25
2022/09/06 08:19:23;;;;;;;2.00;0.60;;;;;;;;;;108178;1302;22562;-28
2022/09/06 08:21:49;;;;;;;1.40;0.60;;;;;;;;;;108208;1302;23369;-24
2022/09/06 08:24:14;;;;;;;0.60;0.40;;;;;;;;;;108316;1300;22543;-24
2022/09/06 08:26:42;;;;;;;1.80;0.80;;;;;;;;;;108343;1301;22521;-28
2022/09/06 08:29:08;;;;;;;2.60;0.60;;;;;;;;;;108349;1308;23410;-27
2022/09/06 08:31:34;;;;;;;0.60;0.50;;;;;;;;;;108397;1301;22706;-28
2022/09/06 08:34:00;;;;;;;0.70;0.40;;;;;;;;;;108225;1301;22535;-27
2022/09/06 08:36:28;;;;;;;1.60;0.80;;;;;;;;;;108367;1301;23171;-24
2022/09/06 08:38:55;;;;;;;2.60;0.60;;;;;;;;;;107772;1308;23497;-24
2022/09/06 08:41:23;;;;;;;1.80;0.50;;;;;;;;;;108315;1302;23138;-28
2022/09/06 08:43:53;;;;;;;4.20;0.40;;;;;;;;;;108362;1302;22540;-24
2022/09/06 08:46:18;;;;;;;4.30;0.90;;;;;;;;;;108175;1302;22514;-24
2022/09/06 08:48:44;;;;;;;1.10;0.40;;;;;;;;;;108043;1308;23302;-24
2022/09/06 08:51:10;;;;;;;0.80;0.30;;;;;;;;;;108355;1302;23132;-28
2022/09/06 08:53:37;;;;;;;5.60;0.60;;;;;;;;;;108258;1300;23158;-24
2022/09/06 08:56:04;;;;;;;1.40;0.60;;;;;;;;;;108367;1286;23112;-24
2022/09/06 08:58:33;;;;;;;0.90;0.40;;;;;;;;;;108384;1300;23025;-28
2022/09/06 09:01:01;;;;;;;3.20;0.60;;;;;;;;;;108325;1308;22432;-28
2022/09/06 09:03:30;;;;;;;2.70;0.50;;;;;;;;;;108238;1302;22535;-24
2022/09/06 09:05:56;;;;;;;2.00;0.60;;;;;;;;;;108360;1300;22575;-28
2022/09/06 09:08:23;;;;;;;2.80;0.70;;;;;;;;;;108160;1308;25155;-24
2022/09/06 09:10:50;;;;;;;2.50;0.80;;;;;;;;;;107448;1308;23106;-28
2022/09/06 09:13:20;;;;;;;0.80;0.30;;;;;;;;;;108128;1302;23142;-28
2022/09/06 09:15:45;;;;;;;9.70;3.50;;;;;;;;;;108384;1302;23311;-24
2022/09/06 09:18:10;;;;;;;2.10;0.80;;;;;;;;;;108285;1302;23221;-28
2022/09/06 09:20:37;;;;;;;5.70;0.40;;;;;;;;;;108324;1301;22546;-24
2022/09/06 09:23:02;;;;;;;2.90;0.40;;;;;;;;;;108215;1301;23296;-24
2022/09/06 09:25:28;;;;;;;2.80;0.40;;;;;;;;;;107927;1301;22534;-28
2022/09/06 09:27:56;;;;;;;2.10;0.60;;;;;;;;;;108239;1301;23309;-24
2022/09/06 09:30:23;;;;;;;2.40;1.90;;;;;;;;;;108271;1300;22569;-28
2022/09/06 09:32:48;;;;;;;1.20;0.70;;;;;;;;;;108276;1301;22820;-28
2022/09/06 09:35:15;;;;;;;6.30;0.70;;;;;;;;;;108163;1302;23173;-28
2022/09/06 09:37:40;;;;;;;1.10;0.60;;;;;;;;;;108246;1300;25236;-24
2022/09/06 09:40:10;;;;;;;0.60;0.30;;;;;;;;;;108203;1301;22582;-25
2022/09/06 09:42:36;;;;;;;1.00;0.30;;;;;;;;;;108209;1300;22461;-28
2022/09/06 09:45:21;;;;;;;1.00;0.60;;;;;;;;;;108177;1302;23187;-28
2022/09/06 09:47:47;;;;;;;0.50;0.20;;;;;;;;;;108223;1302;22608;-28
2022/09/06 09:50:15;;;;;;;0.60;0.40;;;;;;;;;;108224;1301;22753;-26
2022/09/06 09:52:42;;;;;;;0.80;0.60;;;;;;;;;;108383;1302;22627;-28
2022/09/06 09:55:07;;;;;;;0.40;0.30;;;;;;;;;;108422;1300;23367;-28
2022/09/06 09:57:38;;;;;;;5.70;0.40;;;;;;;;;;108362;1308;22506;-24
2022/09/06 10:00:07;;;;;;;0.60;0.40;;;;;;;;;;108405;1301;22933;-28
2022/09/06 10:02:34;;;;;;;1.00;0.30;;;;;;;;;;108325;1308;22634;-25
2022/09/06 10:05:03;;;;;;;0.80;0.60;;;;;;;;;;108075;1302;22515;-24
2022/09/06 10:07:28;;;;;;;0.70;0.50;;;;;;;;;;107825;1302;23408;-24
2022/09/06 10:09:57;;;;;;;3.70;0.60;;;;;;;;;;108353;1289;23211;-24
2022/09/06 10:12:27;;;;;;;0.90;0.50;;;;;;;;;;108358;1300;22791;-28
2022/09/06 10:14:53;;;;;;;8.20;0.40;;;;;;;;;;108375;1301;23311;-24
2022/09/06 10:17:20;;;;;;;1.20;0.50;;;;;;;;;;108207;1308;25205;-24
2022/09/06 10:19:47;;;;;;;6.60;0.70;;;;;;;;;;108138;1302;23022;-24
2022/09/06 10:22:13;;;;;;;1.10;0.30;;;;;;;;;;108336;1302;23646;-27
2022/09/06 10:24:45;;;;;;;3.40;0.50;;;;;;;;;;108354;1308;23233;-27
2022/09/06 10:27:11;;;;;;;2.70;0.40;;;;;;;;;;108376;1300;23295;-27
2022/09/06 10:29:41;;;;;;;3.20;0.40;;;;;;;;;;108311;1308;22633;-23
2022/09/06 10:32:10;;;;;;;0.50;0.30;;;;;;;;;;108301;1300;22371;-23
2022/09/06 10:34:36;;;;;;;0.60;0.50;;;;;;;;;;108341;1302;22481;-23
2022/09/06 10:37:05;;;;;;;3.50;0.40;;;;;;;;;;108121;1289;23227;-24
2022/09/06 10:39:30;;;;;;;1.40;0.60;;;;;;;;;;108361;1303;23212;-28
2022/09/06 10:42:00;;;;;;;2.20;0.60;;;;;;;;;;108369;1308;23082;-28
2022/09/06 10:44:29;;;;;;;0.90;0.60;;;;;;;;;;108319;1301;23446;-24
2022/09/06 10:46:58;;;;;;;4.40;0.60;;;;;;;;;;107559;1308;24048;-28
2022/09/06 10:49:24;;;;;;;1.10;0.50;;;;;;;;;;108071;1302;23180;-24
2022/09/06 10:51:52;;;;;;;1.20;0.70;;;;;;;;;;108379;1300;23416;-24
2022/09/06 10:54:20;;;;;;;1.60;0.50;;;;;;;;;;108289;1308;22523;-28
2022/09/06 10:56:51;;;;;;;1.00;0.50;;;;;;;;;;107485;1301;25235;-24
2022/09/06 10:59:20;;;;;;;12.20;0.80;;;;;;;;;;108379;1300;22464;-24
2022/09/06 11:01:45;;;;;;;0.70;0.30;;;;;;;;;;108373;1285;23284;-28
2022/09/06 11:04:18;;;;;;;0.90;0.50;;;;;;;;;;108309;1302;23719;-27
2022/09/06 11:06:44;;;;;;;2.60;0.50;;;;;;;;;;108310;1302;23215;-27
2022/09/06 11:09:14;;;;;;;0.60;0.30;;;;;;;;;;108278;1300;23782;-24
2022/09/06 11:11:40;;;;;;;1.20;0.40;;;;;;;;;;108198;1302;22705;-23
2022/09/06 11:14:07;;;;;;;3.40;0.50;;;;;;;;;;108322;1302;23001;-24
2022/09/06 11:16:38;;;;;;;2.30;0.40;;;;;;;;;;108361;1300;22531;-24
2022/09/06 11:19:07;;;;;;;0.60;0.30;;;;;;;;;;108346;1302;23117;-24
2022/09/06 11:21:35;;;;;;;1.30;0.50;;;;;;;;;;108314;1301;23322;-23
2022/09/06 11:24:01;;;;;;;0.80;0.50;;;;;;;;;;108307;1308;23274;-28
2022/09/06 11:26:29;;;;;;;1.10;0.60;;;;;;;;;;108210;1302;22543;-27
2022/09/06 11:28:56;;;;;;;1.10;0.50;;;;;;;;;;108217;1301;23173;-24
2022/09/06 11:31:25;;;;;;;1.10;0.60;;;;;;;;;;108316;1301;22523;-24
2022/09/06 11:33:54;;;;;;;1.10;0.60;;;;;;;;;;108210;1308;22608;-24
2022/09/06 11:36:23;;;;;;;1.50;0.50;;;;;;;;;;107820;1286;23338;-24
2022/09/06 11:38:52;;;;;;;0.90;0.50;;;;;;;;;;108310;1302;23316;-28
2022/09/06 11:41:17;;;;;;;4.90;0.60;;;;;;;;;;108315;1308;23109;-24
2022/09/06 11:43:43;;;;;;;0.90;0.50;;;;;;;;;;108315;1308;23242;-28
2022/09/06 11:46:09;;;;;;;1.00;0.40;;;;;;;;;;108368;1300;23426;-25
2022/09/06 11:48:41;;;;;;;3.00;0.50;;;;;;;;;;108363;1301;23414;-24
2022/09/06 11:51:09;;;;;;;3.70;0.40;;;;;;;;;;107613;1295;22565;-24
2022/09/06 11:53:38;;;;;;;2.50;0.50;;;;;;;;;;107870;1308;22805;-28
2022/09/06 11:56:09;;;;;;;7.70;5.30;;;;;;;;;;108219;1301;23262;-28
2022/09/06 11:58:42;;;;;;;1.50;0.80;;;;;;;;;;108348;1302;22992;-28
2022/09/06 12:01:28;;;;;;;1.20;0.50;;;;;;;;;;108332;1301;22556;-28
2022/09/06 12:03:54;;;;;;;1.50;0.50;;;;;;;;;;108337;1308;23305;-28
2022/09/06 12:06:21;;;;;;;1.40;0.70;;;;;;;;;;108250;1292;22452;-28
2022/09/06 12:08:47;;;;;;;3.00;0.80;;;;;;;;;;106866;1293;23135;-28
2022/09/06 12:11:16;;;;;;;1.40;0.60;;;;;;;;;;108358;1302;23050;-28
2022/09/06 12:13:41;;;;;;;1.30;0.70;;;;;;;;;;108036;1302;22546;-24
2022/09/06 12:16:08;;;;;;;1.00;0.60;;;;;;;;;;108368;1301;22188;-24
2022/09/06 12:18:37;;;;;;;2.70;0.90;;;;;;;;;;108252;1300;23203;-27
2022/09/06 12:21:03;;;;;;;1.90;0.40;;;;;;;;;;107632;1308;22544;-27
2022/09/06 12:23:32;;;;;;;1.30;0.70;;;;;;;;;;108032;1300;23247;-27
2022/09/06 12:25:58;;;;;;;1.70;0.60;;;;;;;;;;108302;1302;23124;-24
2022/09/06 12:28:25;;;;;;;1.70;0.50;;;;;;;;;;108291;1300;23189;-26
2022/09/06 12:30:50;;;;;;;2.20;0.70;;;;;;;;;;108257;1301;22279;-28
2022/09/06 12:33:19;;;;;;;3.70;0.90;;;;;;;;;;108336;1300;23169;-28
2022/09/06 12:35:45;;;;;;;0.70;0.40;;;;;;;;;;108328;1301;23149;-28
2022/09/06 12:38:11;;;;;;;1.80;0.50;;;;;;;;;;107811;1301;567001;-24
2022/09/06 12:40:39;;;;;;;1.40;0.80;;;;;;;;;;108329;1300;22487;-27
2022/09/06 12:43:07;;;;;;;1.00;0.60;;;;;;;;;;108323;1302;23382;-24
2022/09/06 12:45:33;;;;;;;1.80;1.60;;;;;;;;;;108336;1300;25909;-28
2022/09/06 12:48:02;;;;;;;0.70;0.40;;;;;;;;;;108218;1301;22547;-24
2022/09/06 12:50:30;;;;;;;0.70;0.40;;;;;;;;;;108359;1302;23245;-28
2022/09/06 12:52:58;;;;;;;3.10;0.40;;;;;;;;;;108276;1300;22534;-24
2022/09/06 12:55:25;;;;;;;1.60;0.50;;;;;;;;;;108208;1301;22543;-28
2022/09/06 12:57:53;;;;;;;1.90;0.50;;;;;;;;;;108370;1292;23246;-28
2022/09/06 13:00:19;;;;;;;2.90;0.70;;;;;;;;;;108312;1300;22518;-28
2022/09/06 13:02:50;;;;;;;2.40;0.80;;;;;;;;;;108200;1300;22539;-24
2022/09/06 13:05:15;;;;;;;1.80;0.60;;;;;;;;;;108326;1300;23218;-28
2022/09/06 13:07:43;;;;;;;6.70;2.60;;;;;;;;;;108058;1300;23545;-24
2022/09/06 13:10:09;;;;;;;2.50;2.20;;;;;;;;;;108338;1301;22664;-27
2022/09/06 13:12:36;;;;;;;7.40;4.00;;;;;;;;;;108357;1300;23218;-27
2022/09/06 13:15:04;;;;;;;2.10;0.50;;;;;;;;;;107879;1302;23182;-27
2022/09/06 13:17:30;;;;;;;1.10;0.50;;;;;;;;;;108345;1300;22349;-24
2022/09/06 13:19:57;;;;;;;1.00;0.50;;;;;;;;;;108166;1301;22537;-27
2022/09/06 13:22:26;;;;;;;1.40;0.50;;;;;;;;;;107912;1300;23076;-24
2022/09/06 13:24:53;;;;;;;0.70;0.50;;;;;;;;;;108324;1308;22856;-28
2022/09/06 13:27:22;;;;;;;50.80;32.20;;;;;;;;;;108353;1302;22534;-28
2022/09/06 13:29:51;;;;;;;11.00;7.70;;;;;;;;;;108284;1301;23326;-24
2022/09/06 13:32:17;;;;;;;15.50;8.90;;;;;;;;;;108123;1301;23270;-28
2022/09/06 13:34:47;;;;;;;17.10;7.10;;;;;;;;;;108346;1300;23222;-27
2022/09/06 13:37:13;;;;;;;52.50;36.50;;;;;;;;;;108400;1300;22580;-28
2022/09/06 13:39:39;;;;;;;45.00;32.00;;;;;;;;;;107784;1300;23201;-26
2022/09/06 13:42:06;;;;;;;47.80;38.00;;;;;;;;;;107834;1302;23033;-24
2022/09/06 13:44:32;;;;;;;3.80;2.80;;;;;;;;;;108242;1301;23259;-28
2022/09/06 13:46:58;;;;;;;2.40;1.60;;;;;;;;;;108305;1301;23296;-24
2022/09/06 13:49:24;;;;;;;12.30;9.00;;;;;;;;;;108337;1300;23217;-24
2022/09/06 13:51:50;;;;;;;6.10;4.60;;;;;;;;;;108324;1301;23816;-28
2022/09/06 13:54:16;;;;;;;5.10;3.90;;;;;;;;;;107977;1308;22553;-28
2022/09/06 13:56:43;;;;;;;24.40;14.70;;;;;;;;;;108402;1285;23124;-28
2022/09/06 13:59:09;;;;;;;22.00;13.10;;;;;;;;;;108305;1300;22459;-27
2022/09/06 14:01:34;;;;;;;4.90;4.30;;;;;;;;;;108433;1300;23326;-26
2022/09/06 14:04:00;;;;;;;16.70;14.50;;;;;;;;;;108298;1300;22396;-27
2022/09/06 14:06:26;;;;;;;5.70;5.20;;;;;;;;;;108411;1300;22533;-24
2022/09/06 14:08:51;;;;;;;4.60;3.00;;;;;;;;;;108168;1300;23332;-28
2022/09/06 14:11:17;;;;;;;8.30;5.40;;;;;;;;;;108411;1300;22987;-28
2022/09/06 14:13:43;;;;;;;4.30;1.80;;;;;;;;;;108351;1300;22894;-28
2022/09/06 14:16:08;;;;;;;5.30;4.90;;;;;;;;;;108405;1300;22712;-24
2022/09/06 14:18:33;;;;;;;8.90;3.70;;;;;;;;;;108311;1302;23372;-28
2022/09/06 14:21:00;;;;;;;5.70;1.90;;;;;;;;;;107343;1286;1002727;-27
2022/09/06 14:23:25;;;;;;;38.10;22.10;;;;;;;;;;108257;1302;23491;-24